sensor_id;sensor_type;location;lat;lon;timestamp;P1;durP1;ratioP1;P2;durP2;ratioP2
9310;SDS011;4694;52.464;13.480;2023-09-12T00:00:38;23.58;;;15.88;;
9310;SDS011;4694;52.464;13.480;2023-09-12T00:03:05;20.98;;;15.15;;
9310;SDS011;4694;52.464;13.480;2023-09-12T00:05:31;20.33;;;16.67;;
9310;SDS011;4694;52.464;13.480;2023-09-12T00:07:58;18.63;;;16.45;;
9310;SDS011;4694;52.464;13.480;2023-09-12T00:10:26;21.83;;;16.38;;
9310;SDS011;4694;52.464;13.480;2023-09-12T00:12:53;22.63;;;15.75;;
9310;SDS011;4694;52.464;13.480;2023-09-12T00:15:20;24.15;;;17.00;;
9310;SDS011;4694;52.464;13.480;2023-09-12T00:17:46;21.48;;;16.48;;
9310;SDS011;4694;52.464;13.480;2023-09-12T00:20:14;18.65;;;14.52;;
9310;SDS011;4694;52.464;13.480;2023-09-12T00:22:41;21.23;;;16.00;;
9310;SDS011;4694;52.464;13.480;2023-09-12T00:25:07;23.98;;;16.50;;
9310;SDS011;4694;52.464;13.480;2023-09-12T00:27:35;22.98;;;17.33;;
9310;SDS011;4694;52.464;13.480;2023-09-12T00:30:02;21.58;;;15.80;;
9310;SDS011;4694;52.464;13.480;2023-09-12T00:32:30;22.25;;;14.77;;
9310;SDS011;4694;52.464;13.480;2023-09-12T00:34:56;22.80;;;16.73;;
9310;SDS011;4694;52.464;13.480;2023-09-12T00:37:23;23.63;;;15.68;;
9310;SDS011;4694;52.464;13.480;2023-09-12T00:39:49;25.88;;;18.20;;
9310;SDS011;4694;52.464;13.480;2023-09-12T00:42:16;23.35;;;16.67;;
9310;SDS011;4694;52.464;13.480;2023-09-12T00:44:44;23.85;;;16.52;;
9310;SDS011;4694;52.464;13.480;2023-09-12T00:47:10;22.48;;;17.58;;
9310;SDS011;4694;52.464;13.480;2023-09-12T00:49:38;23.40;;;16.02;;
9310;SDS011;4694;52.464;13.480;2023-09-12T00:52:05;21.90;;;17.08;;
9310;SDS011;4694;52.464;13.480;2023-09-12T00:54:33;21.25;;;17.30;;
9310;SDS011;4694;52.464;13.480;2023-09-12T00:56:59;20.83;;;16.00;;
9310;SDS011;4694;52.464;13.480;2023-09-12T00:59:26;22.10;;;16.95;;
9310;SDS011;4694;52.464;13.480;2023-09-12T01:01:55;23.13;;;16.45;;
9310;SDS011;4694;52.464;13.480;2023-09-12T01:04:22;23.80;;;17.13;;
9310;SDS011;4694;52.464;13.480;2023-09-12T01:06:48;20.13;;;15.73;;
9310;SDS011;4694;52.464;13.480;2023-09-12T01:09:15;22.55;;;15.85;;
9310;SDS011;4694;52.464;13.480;2023-09-12T01:11:42;23.10;;;17.30;;
9310;SDS011;4694;52.464;13.480;2023-09-12T01:14:09;24.00;;;17.27;;
9310;SDS011;4694;52.464;13.480;2023-09-12T01:16:35;26.80;;;16.67;;
9310;SDS011;4694;52.464;13.480;2023-09-12T01:19:04;22.63;;;16.35;;
9310;SDS011;4694;52.464;13.480;2023-09-12T01:21:36;21.58;;;15.60;;
9310;SDS011;4694;52.464;13.480;2023-09-12T01:24:17;21.02;;;16.30;;
9310;SDS011;4694;52.464;13.480;2023-09-12T01:26:59;24.73;;;16.60;;
9310;SDS011;4694;52.464;13.480;2023-09-12T01:29:46;23.15;;;16.00;;
9310;SDS011;4694;52.464;13.480;2023-09-12T01:34:44;23.10;;;16.83;;
9310;SDS011;4694;52.464;13.480;2023-09-12T01:37:11;18.80;;;15.30;;
9310;SDS011;4694;52.464;13.480;2023-09-12T01:39:37;24.48;;;17.83;;
9310;SDS011;4694;52.464;13.480;2023-09-12T01:42:04;24.42;;;17.23;;
9310;SDS011;4694;52.464;13.480;2023-09-12T01:44:33;21.75;;;15.90;;
9310;SDS011;4694;52.464;13.480;2023-09-12T01:47:02;22.52;;;16.33;;
9310;SDS011;4694;52.464;13.480;2023-09-12T01:49:31;21.02;;;17.20;;
9310;SDS011;4694;52.464;13.480;2023-09-12T01:51:59;21.27;;;15.90;;
9310;SDS011;4694;52.464;13.480;2023-09-12T01:54:27;18.75;;;15.70;;
9310;SDS011;4694;52.464;13.480;2023-09-12T01:56:54;17.90;;;16.00;;
9310;SDS011;4694;52.464;13.480;2023-09-12T01:59:22;20.20;;;16.30;;
9310;SDS011;4694;52.464;13.480;2023-09-12T02:01:50;22.27;;;16.60;;
9310;SDS011;4694;52.464;13.480;2023-09-12T02:04:17;19.08;;;15.75;;
9310;SDS011;4694;52.464;13.480;2023-09-12T02:06:44;24.92;;;17.55;;
9310;SDS011;4694;52.464;13.480;2023-09-12T02:09:10;23.27;;;17.08;;
9310;SDS011;4694;52.464;13.480;2023-09-12T02:11:37;19.80;;;15.27;;
9310;SDS011;4694;52.464;13.480;2023-09-12T02:14:04;24.25;;;17.40;;
9310;SDS011;4694;52.464;13.480;2023-09-12T02:16:30;20.38;;;15.70;;
9310;SDS011;4694;52.464;13.480;2023-09-12T02:18:59;20.85;;;15.65;;
9310;SDS011;4694;52.464;13.480;2023-09-12T02:21:25;23.95;;;16.67;;
9310;SDS011;4694;52.464;13.480;2023-09-12T02:23:52;23.10;;;16.10;;
9310;SDS011;4694;52.464;13.480;2023-09-12T02:26:19;19.23;;;15.18;;
9310;SDS011;4694;52.464;13.480;2023-09-12T02:28:45;22.67;;;16.25;;
9310;SDS011;4694;52.464;13.480;2023-09-12T02:31:12;22.10;;;17.35;;
9310;SDS011;4694;52.464;13.480;2023-09-12T02:33:39;22.17;;;16.52;;
9310;SDS011;4694;52.464;13.480;2023-09-12T02:36:07;20.13;;;16.58;;
9310;SDS011;4694;52.464;13.480;2023-09-12T02:38:34;22.40;;;16.52;;
9310;SDS011;4694;52.464;13.480;2023-09-12T02:41:00;21.65;;;16.88;;
9310;SDS011;4694;52.464;13.480;2023-09-12T02:43:28;20.33;;;15.55;;
9310;SDS011;4694;52.464;13.480;2023-09-12T02:45:55;23.25;;;18.40;;
9310;SDS011;4694;52.464;13.480;2023-09-12T02:48:21;19.23;;;15.80;;
9310;SDS011;4694;52.464;13.480;2023-09-12T02:50:48;25.95;;;17.05;;
9310;SDS011;4694;52.464;13.480;2023-09-12T02:53:16;19.80;;;16.83;;
9310;SDS011;4694;52.464;13.480;2023-09-12T02:55:43;23.98;;;16.50;;
9310;SDS011;4694;52.464;13.480;2023-09-12T02:58:09;17.13;;;15.02;;
9310;SDS011;4694;52.464;13.480;2023-09-12T03:00:37;20.27;;;17.17;;
9310;SDS011;4694;52.464;13.480;2023-09-12T03:03:04;20.20;;;17.30;;
9310;SDS011;4694;52.464;13.480;2023-09-12T03:05:31;23.88;;;16.95;;
9310;SDS011;4694;52.464;13.480;2023-09-12T03:07:58;22.48;;;16.85;;
9310;SDS011;4694;52.464;13.480;2023-09-12T03:10:26;19.50;;;17.00;;
9310;SDS011;4694;52.464;13.480;2023-09-12T03:12:52;20.80;;;15.93;;
9310;SDS011;4694;52.464;13.480;2023-09-12T03:15:19;17.90;;;15.02;;
9310;SDS011;4694;52.464;13.480;2023-09-12T03:17:45;19.85;;;15.75;;
9310;SDS011;4694;52.464;13.480;2023-09-12T03:20:12;22.02;;;18.17;;
9310;SDS011;4694;52.464;13.480;2023-09-12T03:22:39;19.10;;;15.95;;
9310;SDS011;4694;52.464;13.480;2023-09-12T03:25:06;20.50;;;17.30;;
9310;SDS011;4694;52.464;13.480;2023-09-12T03:27:34;20.23;;;16.77;;
9310;SDS011;4694;52.464;13.480;2023-09-12T03:30:00;26.90;;;15.77;;
9310;SDS011;4694;52.464;13.480;2023-09-12T03:32:28;23.67;;;18.95;;
9310;SDS011;4694;52.464;13.480;2023-09-12T03:34:55;21.25;;;16.13;;
9310;SDS011;4694;52.464;13.480;2023-09-12T03:37:22;22.08;;;16.33;;
9310;SDS011;4694;52.464;13.480;2023-09-12T03:39:52;23.95;;;18.55;;
9310;SDS011;4694;52.464;13.480;2023-09-12T03:42:19;22.80;;;17.75;;
9310;SDS011;4694;52.464;13.480;2023-09-12T03:44:47;23.95;;;16.67;;
9310;SDS011;4694;52.464;13.480;2023-09-12T03:47:14;24.50;;;18.00;;
9310;SDS011;4694;52.464;13.480;2023-09-12T03:49:40;27.48;;;18.48;;
9310;SDS011;4694;52.464;13.480;2023-09-12T03:52:07;22.17;;;18.00;;
9310;SDS011;4694;52.464;13.480;2023-09-12T03:54:34;20.38;;;15.75;;
9310;SDS011;4694;52.464;13.480;2023-09-12T03:57:00;24.15;;;18.42;;
9310;SDS011;4694;52.464;13.480;2023-09-12T03:59:27;24.38;;;18.50;;
9310;SDS011;4694;52.464;13.480;2023-09-12T04:01:55;26.95;;;18.55;;
9310;SDS011;4694;52.464;13.480;2023-09-12T04:04:21;23.60;;;19.38;;
9310;SDS011;4694;52.464;13.480;2023-09-12T04:06:48;21.65;;;17.35;;
9310;SDS011;4694;52.464;13.480;2023-09-12T04:09:15;22.67;;;17.05;;
9310;SDS011;4694;52.464;13.480;2023-09-12T04:11:41;24.08;;;19.02;;
9310;SDS011;4694;52.464;13.480;2023-09-12T04:14:08;24.63;;;18.85;;
9310;SDS011;4694;52.464;13.480;2023-09-12T04:16:35;22.63;;;17.95;;
9310;SDS011;4694;52.464;13.480;2023-09-12T04:19:03;25.42;;;18.92;;
9310;SDS011;4694;52.464;13.480;2023-09-12T04:21:30;25.27;;;18.83;;
9310;SDS011;4694;52.464;13.480;2023-09-12T04:23:57;23.83;;;17.85;;
9310;SDS011;4694;52.464;13.480;2023-09-12T04:26:23;22.42;;;18.45;;
9310;SDS011;4694;52.464;13.480;2023-09-12T04:28:50;28.48;;;21.58;;
9310;SDS011;4694;52.464;13.480;2023-09-12T04:31:16;25.52;;;18.15;;
9310;SDS011;4694;52.464;13.480;2023-09-12T04:33:43;24.42;;;18.48;;
9310;SDS011;4694;52.464;13.480;2023-09-12T04:36:11;22.13;;;17.65;;
9310;SDS011;4694;52.464;13.480;2023-09-12T04:38:38;23.08;;;16.73;;
9310;SDS011;4694;52.464;13.480;2023-09-12T04:41:04;24.90;;;19.77;;
9310;SDS011;4694;52.464;13.480;2023-09-12T04:43:31;27.95;;;20.33;;
9310;SDS011;4694;52.464;13.480;2023-09-12T04:45:58;24.25;;;19.55;;
9310;SDS011;4694;52.464;13.480;2023-09-12T04:48:25;25.80;;;19.83;;
9310;SDS011;4694;52.464;13.480;2023-09-12T04:50:52;22.67;;;19.42;;
9310;SDS011;4694;52.464;13.480;2023-09-12T04:53:20;24.08;;;18.75;;
9310;SDS011;4694;52.464;13.480;2023-09-12T04:55:46;24.50;;;19.30;;
9310;SDS011;4694;52.464;13.480;2023-09-12T04:58:13;24.63;;;19.63;;
9310;SDS011;4694;52.464;13.480;2023-09-12T05:00:40;24.70;;;19.20;;
9310;SDS011;4694;52.464;13.480;2023-09-12T05:03:06;24.67;;;20.20;;
9310;SDS011;4694;52.464;13.480;2023-09-12T05:05:33;24.50;;;19.33;;
9310;SDS011;4694;52.464;13.480;2023-09-12T05:08:01;23.15;;;19.63;;
9310;SDS011;4694;52.464;13.480;2023-09-12T05:10:30;28.60;;;21.50;;
9310;SDS011;4694;52.464;13.480;2023-09-12T05:12:57;28.20;;;21.70;;
9310;SDS011;4694;52.464;13.480;2023-09-12T05:15:23;26.65;;;19.77;;
9310;SDS011;4694;52.464;13.480;2023-09-12T05:17:50;28.88;;;22.17;;
9310;SDS011;4694;52.464;13.480;2023-09-12T05:20:16;27.75;;;21.15;;
9310;SDS011;4694;52.464;13.480;2023-09-12T05:22:43;24.25;;;20.48;;
9310;SDS011;4694;52.464;13.480;2023-09-12T05:25:10;24.35;;;19.83;;
9310;SDS011;4694;52.464;13.480;2023-09-12T05:27:38;27.08;;;21.17;;
9310;SDS011;4694;52.464;13.480;2023-09-12T05:30:05;27.15;;;20.75;;
9310;SDS011;4694;52.464;13.480;2023-09-12T05:32:32;27.98;;;18.88;;
9310;SDS011;4694;52.464;13.480;2023-09-12T05:34:59;30.63;;;22.67;;
9310;SDS011;4694;52.464;13.480;2023-09-12T05:37:25;28.48;;;20.58;;
9310;SDS011;4694;52.464;13.480;2023-09-12T05:39:52;30.63;;;20.70;;
9310;SDS011;4694;52.464;13.480;2023-09-12T05:42:19;22.25;;;18.52;;
9310;SDS011;4694;52.464;13.480;2023-09-12T05:44:48;27.48;;;20.77;;
9310;SDS011;4694;52.464;13.480;2023-09-12T05:47:18;24.15;;;18.40;;
9310;SDS011;4694;52.464;13.480;2023-09-12T05:49:45;31.45;;;20.30;;
9310;SDS011;4694;52.464;13.480;2023-09-12T05:52:11;22.83;;;18.50;;
9310;SDS011;4694;52.464;13.480;2023-09-12T05:54:38;27.65;;;20.67;;
9310;SDS011;4694;52.464;13.480;2023-09-12T05:57:06;26.60;;;20.35;;
9310;SDS011;4694;52.464;13.480;2023-09-12T05:59:35;22.50;;;17.75;;
9310;SDS011;4694;52.464;13.480;2023-09-12T06:02:04;24.05;;;19.40;;
9310;SDS011;4694;52.464;13.480;2023-09-12T06:04:33;28.13;;;19.95;;
9310;SDS011;4694;52.464;13.480;2023-09-12T06:07:00;28.02;;;18.35;;
9310;SDS011;4694;52.464;13.480;2023-09-12T06:09:27;26.35;;;19.70;;
9310;SDS011;4694;52.464;13.480;2023-09-12T06:11:54;31.83;;;20.75;;
9310;SDS011;4694;52.464;13.480;2023-09-12T06:14:21;22.25;;;19.52;;
9310;SDS011;4694;52.464;13.480;2023-09-12T06:16:48;25.55;;;19.23;;
9310;SDS011;4694;52.464;13.480;2023-09-12T06:19:16;23.23;;;17.77;;
9310;SDS011;4694;52.464;13.480;2023-09-12T06:21:44;26.17;;;19.25;;
9310;SDS011;4694;52.464;13.480;2023-09-12T06:24:11;24.90;;;18.27;;
9310;SDS011;4694;52.464;13.480;2023-09-12T06:26:39;25.25;;;17.25;;
9310;SDS011;4694;52.464;13.480;2023-09-12T06:29:06;20.42;;;17.02;;
9310;SDS011;4694;52.464;13.480;2023-09-12T06:31:33;18.40;;;16.42;;
9310;SDS011;4694;52.464;13.480;2023-09-12T06:34:00;23.05;;;17.45;;
9310;SDS011;4694;52.464;13.480;2023-09-12T06:36:28;19.10;;;15.57;;
9310;SDS011;4694;52.464;13.480;2023-09-12T06:38:55;18.38;;;15.90;;
9310;SDS011;4694;52.464;13.480;2023-09-12T06:41:22;20.48;;;16.95;;
9310;SDS011;4694;52.464;13.480;2023-09-12T06:43:48;21.70;;;16.92;;
9310;SDS011;4694;52.464;13.480;2023-09-12T06:46:15;22.10;;;15.98;;
9310;SDS011;4694;52.464;13.480;2023-09-12T06:48:43;23.85;;;15.48;;
9310;SDS011;4694;52.464;13.480;2023-09-12T06:51:09;20.35;;;15.60;;
9310;SDS011;4694;52.464;13.480;2023-09-12T06:53:38;18.98;;;13.88;;
9310;SDS011;4694;52.464;13.480;2023-09-12T06:56:05;18.10;;;14.65;;
9310;SDS011;4694;52.464;13.480;2023-09-12T06:58:31;21.98;;;13.88;;
9310;SDS011;4694;52.464;13.480;2023-09-12T07:01:01;19.55;;;13.75;;
9310;SDS011;4694;52.464;13.480;2023-09-12T07:03:28;14.15;;;12.70;;
9310;SDS011;4694;52.464;13.480;2023-09-12T07:05:55;15.77;;;12.07;;
9310;SDS011;4694;52.464;13.480;2023-09-12T07:08:22;20.00;;;13.68;;
9310;SDS011;4694;52.464;13.480;2023-09-12T07:10:50;17.63;;;13.02;;
9310;SDS011;4694;52.464;13.480;2023-09-12T07:13:19;16.75;;;11.70;;
9310;SDS011;4694;52.464;13.480;2023-09-12T07:15:46;19.60;;;13.63;;
9310;SDS011;4694;52.464;13.480;2023-09-12T07:18:13;15.05;;;12.23;;
9310;SDS011;4694;52.464;13.480;2023-09-12T07:20:40;14.90;;;11.70;;
9310;SDS011;4694;52.464;13.480;2023-09-12T07:23:06;13.85;;;10.93;;
9310;SDS011;4694;52.464;13.480;2023-09-12T07:25:35;16.08;;;11.95;;
9310;SDS011;4694;52.464;13.480;2023-09-12T07:28:05;16.60;;;11.40;;
9310;SDS011;4694;52.464;13.480;2023-09-12T07:30:32;14.25;;;11.13;;
9310;SDS011;4694;52.464;13.480;2023-09-12T07:32:59;15.55;;;10.68;;
9310;SDS011;4694;52.464;13.480;2023-09-12T07:35:26;18.65;;;11.10;;
9310;SDS011;4694;52.464;13.480;2023-09-12T07:37:52;11.07;;;9.93;;
9310;SDS011;4694;52.464;13.480;2023-09-12T07:40:19;12.57;;;10.90;;
9310;SDS011;4694;52.464;13.480;2023-09-12T07:42:45;18.65;;;11.50;;
9310;SDS011;4694;52.464;13.480;2023-09-12T07:45:13;13.95;;;10.07;;
9310;SDS011;4694;52.464;13.480;2023-09-12T07:47:40;14.23;;;10.23;;
9310;SDS011;4694;52.464;13.480;2023-09-12T07:50:07;16.15;;;10.38;;
9310;SDS011;4694;52.464;13.480;2023-09-12T07:52:34;13.60;;;11.32;;
9310;SDS011;4694;52.464;13.480;2023-09-12T07:55:00;15.90;;;9.90;;
9310;SDS011;4694;52.464;13.480;2023-09-12T07:57:27;18.45;;;9.80;;
9310;SDS011;4694;52.464;13.480;2023-09-12T07:59:54;19.83;;;10.05;;
9310;SDS011;4694;52.464;13.480;2023-09-12T08:02:22;14.75;;;10.63;;
9310;SDS011;4694;52.464;13.480;2023-09-12T08:04:49;17.42;;;9.45;;
9310;SDS011;4694;52.464;13.480;2023-09-12T08:07:16;16.02;;;9.48;;
9310;SDS011;4694;52.464;13.480;2023-09-12T08:09:49;20.20;;;9.23;;
9310;SDS011;4694;52.464;13.480;2023-09-12T08:12:17;15.57;;;9.82;;
9310;SDS011;4694;52.464;13.480;2023-09-12T08:14:44;10.43;;;8.70;;
9310;SDS011;4694;52.464;13.480;2023-09-12T08:17:11;12.23;;;8.52;;
9310;SDS011;4694;52.464;13.480;2023-09-12T08:19:40;15.90;;;9.10;;
9310;SDS011;4694;52.464;13.480;2023-09-12T08:22:07;13.30;;;8.23;;
9310;SDS011;4694;52.464;13.480;2023-09-12T08:24:35;17.25;;;7.63;;
9310;SDS011;4694;52.464;13.480;2023-09-12T08:27:02;13.93;;;10.52;;
9310;SDS011;4694;52.464;13.480;2023-09-12T08:29:29;17.38;;;9.57;;
9310;SDS011;4694;52.464;13.480;2023-09-12T08:31:59;19.08;;;8.82;;
9310;SDS011;4694;52.464;13.480;2023-09-12T08:34:26;16.88;;;8.60;;
9310;SDS011;4694;52.464;13.480;2023-09-12T08:36:54;10.98;;;7.55;;
9310;SDS011;4694;52.464;13.480;2023-09-12T08:39:23;13.75;;;8.10;;
9310;SDS011;4694;52.464;13.480;2023-09-12T08:41:50;21.38;;;9.77;;
9310;SDS011;4694;52.464;13.480;2023-09-12T08:44:18;14.18;;;10.52;;
9310;SDS011;4694;52.464;13.480;2023-09-12T08:46:46;19.42;;;10.90;;
9310;SDS011;4694;52.464;13.480;2023-09-12T08:49:13;15.93;;;10.10;;
9310;SDS011;4694;52.464;13.480;2023-09-12T08:51:41;21.83;;;12.68;;
9310;SDS011;4694;52.464;13.480;2023-09-12T08:54:09;19.45;;;10.15;;
9310;SDS011;4694;52.464;13.480;2023-09-12T08:56:36;12.70;;;10.07;;
9310;SDS011;4694;52.464;13.480;2023-09-12T08:59:05;13.25;;;7.20;;
9310;SDS011;4694;52.464;13.480;2023-09-12T09:01:33;9.63;;;7.10;;
9310;SDS011;4694;52.464;13.480;2023-09-12T09:04:01;15.02;;;6.65;;
9310;SDS011;4694;52.464;13.480;2023-09-12T09:06:29;12.75;;;6.88;;
9310;SDS011;4694;52.464;13.480;2023-09-12T09:09:02;10.38;;;6.18;;
9310;SDS011;4694;52.464;13.480;2023-09-12T09:11:32;17.90;;;7.67;;
9310;SDS011;4694;52.464;13.480;2023-09-12T09:13:59;11.75;;;6.22;;
9310;SDS011;4694;52.464;13.480;2023-09-12T09:16:27;10.63;;;7.07;;
9310;SDS011;4694;52.464;13.480;2023-09-12T09:18:55;15.98;;;7.22;;
9310;SDS011;4694;52.464;13.480;2023-09-12T09:21:23;17.17;;;8.35;;
9310;SDS011;4694;52.464;13.480;2023-09-12T09:23:51;17.33;;;7.50;;
9310;SDS011;4694;52.464;13.480;2023-09-12T09:26:18;13.73;;;6.78;;
9310;SDS011;4694;52.464;13.480;2023-09-12T09:28:47;16.13;;;6.78;;
9310;SDS011;4694;52.464;13.480;2023-09-12T09:31:30;18.75;;;6.78;;
9310;SDS011;4694;52.464;13.480;2023-09-12T09:33:58;20.38;;;6.03;;
9310;SDS011;4694;52.464;13.480;2023-09-12T09:36:26;17.70;;;5.60;;
9310;SDS011;4694;52.464;13.480;2023-09-12T09:38:54;12.80;;;5.32;;
9310;SDS011;4694;52.464;13.480;2023-09-12T09:41:24;12.85;;;6.32;;
9310;SDS011;4694;52.464;13.480;2023-09-12T09:43:52;13.07;;;6.47;;
9310;SDS011;4694;52.464;13.480;2023-09-12T09:46:19;10.80;;;6.15;;
9310;SDS011;4694;52.464;13.480;2023-09-12T09:48:48;11.30;;;5.43;;
9310;SDS011;4694;52.464;13.480;2023-09-12T09:51:15;14.98;;;6.28;;
9310;SDS011;4694;52.464;13.480;2023-09-12T09:53:42;13.98;;;7.05;;
9310;SDS011;4694;52.464;13.480;2023-09-12T09:56:09;19.40;;;7.15;;
9310;SDS011;4694;52.464;13.480;2023-09-12T09:58:36;10.20;;;6.80;;
9310;SDS011;4694;52.464;13.480;2023-09-12T10:01:09;17.77;;;7.32;;
9310;SDS011;4694;52.464;13.480;2023-09-12T10:03:37;14.57;;;7.20;;
9310;SDS011;4694;52.464;13.480;2023-09-12T10:06:05;13.65;;;5.82;;
9310;SDS011;4694;52.464;13.480;2023-09-12T10:08:33;13.45;;;7.07;;
9310;SDS011;4694;52.464;13.480;2023-09-12T10:11:01;15.57;;;6.25;;
9310;SDS011;4694;52.464;13.480;2023-09-12T10:13:29;12.20;;;7.07;;
9310;SDS011;4694;52.464;13.480;2023-09-12T10:15:59;16.77;;;6.65;;
9310;SDS011;4694;52.464;13.480;2023-09-12T10:18:31;18.58;;;9.18;;
9310;SDS011;4694;52.464;13.480;2023-09-12T10:21:11;15.75;;;7.70;;
9310;SDS011;4694;52.464;13.480;2023-09-12T10:23:45;15.98;;;7.65;;
9310;SDS011;4694;52.464;13.480;2023-09-12T10:26:15;17.50;;;8.85;;
9310;SDS011;4694;52.464;13.480;2023-09-12T10:28:44;20.10;;;8.98;;
9310;SDS011;4694;52.464;13.480;2023-09-12T10:33:41;14.32;;;8.13;;
9310;SDS011;4694;52.464;13.480;2023-09-12T10:36:09;16.45;;;8.07;;
9310;SDS011;4694;52.464;13.480;2023-09-12T10:38:40;18.52;;;8.07;;
9310;SDS011;4694;52.464;13.480;2023-09-12T10:41:10;14.93;;;9.07;;
9310;SDS011;4694;52.464;13.480;2023-09-12T10:46:05;15.60;;;9.25;;
9310;SDS011;4694;52.464;13.480;2023-09-12T10:48:32;20.70;;;10.00;;
9310;SDS011;4694;52.464;13.480;2023-09-12T10:51:01;12.35;;;9.10;;
9310;SDS011;4694;52.464;13.480;2023-09-12T10:53:30;10.32;;;8.00;;
9310;SDS011;4694;52.464;13.480;2023-09-12T10:55:58;17.33;;;8.93;;
9310;SDS011;4694;52.464;13.480;2023-09-12T10:58:26;18.23;;;9.20;;
9310;SDS011;4694;52.464;13.480;2023-09-12T11:03:47;15.70;;;9.07;;
9310;SDS011;4694;52.464;13.480;2023-09-12T11:06:22;15.45;;;9.05;;
9310;SDS011;4694;52.464;13.480;2023-09-12T11:11:43;18.00;;;9.98;;
9310;SDS011;4694;52.464;13.480;2023-09-12T11:14:11;11.27;;;8.32;;
9310;SDS011;4694;52.464;13.480;2023-09-12T11:16:39;14.82;;;7.97;;
9310;SDS011;4694;52.464;13.480;2023-09-12T11:19:13;12.57;;;7.03;;
9310;SDS011;4694;52.464;13.480;2023-09-12T11:21:45;16.35;;;8.73;;
9310;SDS011;4694;52.464;13.480;2023-09-12T11:24:13;14.50;;;7.82;;
9310;SDS011;4694;52.464;13.480;2023-09-12T11:27:00;16.90;;;7.25;;
9310;SDS011;4694;52.464;13.480;2023-09-12T11:29:30;15.05;;;7.90;;
9310;SDS011;4694;52.464;13.480;2023-09-12T11:32:01;16.80;;;7.90;;
9310;SDS011;4694;52.464;13.480;2023-09-12T11:34:29;14.90;;;6.50;;
9310;SDS011;4694;52.464;13.480;2023-09-12T11:37:03;15.10;;;6.80;;
9310;SDS011;4694;52.464;13.480;2023-09-12T11:39:31;13.43;;;6.95;;
9310;SDS011;4694;52.464;13.480;2023-09-12T11:41:59;14.17;;;6.47;;
9310;SDS011;4694;52.464;13.480;2023-09-12T11:44:27;12.02;;;7.07;;
9310;SDS011;4694;52.464;13.480;2023-09-12T11:46:56;16.27;;;6.15;;
9310;SDS011;4694;52.464;13.480;2023-09-12T11:49:34;17.95;;;7.22;;
9310;SDS011;4694;52.464;13.480;2023-09-12T11:52:07;12.82;;;7.28;;
9310;SDS011;4694;52.464;13.480;2023-09-12T11:54:35;17.42;;;6.95;;
9310;SDS011;4694;52.464;13.480;2023-09-12T11:57:02;15.35;;;6.85;;
9310;SDS011;4694;52.464;13.480;2023-09-12T11:59:29;12.95;;;7.50;;
9310;SDS011;4694;52.464;13.480;2023-09-12T12:01:56;19.95;;;7.10;;
9310;SDS011;4694;52.464;13.480;2023-09-12T12:04:23;18.80;;;7.40;;
9310;SDS011;4694;52.464;13.480;2023-09-12T12:06:51;14.75;;;7.13;;
9310;SDS011;4694;52.464;13.480;2023-09-12T12:09:19;14.00;;;7.15;;
9310;SDS011;4694;52.464;13.480;2023-09-12T12:11:46;17.92;;;8.30;;
9310;SDS011;4694;52.464;13.480;2023-09-12T12:14:13;18.25;;;7.25;;
9310;SDS011;4694;52.464;13.480;2023-09-12T12:16:41;13.70;;;8.13;;
9310;SDS011;4694;52.464;13.480;2023-09-12T12:19:08;12.65;;;7.47;;
9310;SDS011;4694;52.464;13.480;2023-09-12T12:21:36;20.87;;;8.07;;
9310;SDS011;4694;52.464;13.480;2023-09-12T12:24:03;17.70;;;8.48;;
9310;SDS011;4694;52.464;13.480;2023-09-12T12:26:33;10.70;;;7.38;;
9310;SDS011;4694;52.464;13.480;2023-09-12T12:28:59;11.70;;;8.23;;
9310;SDS011;4694;52.464;13.480;2023-09-12T12:31:27;10.48;;;7.60;;
9310;SDS011;4694;52.464;13.480;2023-09-12T12:33:54;15.43;;;7.05;;
9310;SDS011;4694;52.464;13.480;2023-09-12T12:36:21;14.68;;;6.38;;
9310;SDS011;4694;52.464;13.480;2023-09-12T12:38:48;9.82;;;5.50;;
9310;SDS011;4694;52.464;13.480;2023-09-12T12:41:16;12.55;;;6.45;;
9310;SDS011;4694;52.464;13.480;2023-09-12T12:43:50;13.20;;;6.30;;
9310;SDS011;4694;52.464;13.480;2023-09-12T12:46:17;12.73;;;6.38;;
9310;SDS011;4694;52.464;13.480;2023-09-12T12:48:46;13.07;;;6.78;;
9310;SDS011;4694;52.464;13.480;2023-09-12T12:51:14;14.82;;;7.70;;
9310;SDS011;4694;52.464;13.480;2023-09-12T12:53:42;11.32;;;7.65;;
9310;SDS011;4694;52.464;13.480;2023-09-12T12:56:11;19.27;;;7.70;;
9310;SDS011;4694;52.464;13.480;2023-09-12T12:58:44;13.80;;;6.32;;
9310;SDS011;4694;52.464;13.480;2023-09-12T13:01:13;10.23;;;6.03;;
9310;SDS011;4694;52.464;13.480;2023-09-12T13:03:40;13.32;;;6.28;;
9310;SDS011;4694;52.464;13.480;2023-09-12T13:06:07;9.07;;;6.72;;
9310;SDS011;4694;52.464;13.480;2023-09-12T13:08:38;9.35;;;6.60;;
9310;SDS011;4694;52.464;13.480;2023-09-12T13:11:05;14.43;;;6.03;;
9310;SDS011;4694;52.464;13.480;2023-09-12T13:13:32;9.48;;;6.60;;
9310;SDS011;4694;52.464;13.480;2023-09-12T13:15:58;11.15;;;5.88;;
9310;SDS011;4694;52.464;13.480;2023-09-12T13:18:27;11.85;;;5.65;;
9310;SDS011;4694;52.464;13.480;2023-09-12T13:20:53;9.70;;;6.10;;
9310;SDS011;4694;52.464;13.480;2023-09-12T13:23:20;11.82;;;6.03;;
9310;SDS011;4694;52.464;13.480;2023-09-12T13:25:49;14.15;;;5.80;;
9310;SDS011;4694;52.464;13.480;2023-09-12T13:28:16;10.73;;;6.75;;
9310;SDS011;4694;52.464;13.480;2023-09-12T13:30:42;10.52;;;5.60;;
9310;SDS011;4694;52.464;13.480;2023-09-12T13:33:09;11.13;;;5.93;;
9310;SDS011;4694;52.464;13.480;2023-09-12T13:35:38;10.55;;;6.03;;
9310;SDS011;4694;52.464;13.480;2023-09-12T13:38:05;11.70;;;6.22;;
9310;SDS011;4694;52.464;13.480;2023-09-12T13:43:02;10.00;;;6.57;;
9310;SDS011;4694;52.464;13.480;2023-09-12T13:45:29;7.72;;;5.60;;
9310;SDS011;4694;52.464;13.480;2023-09-12T13:47:55;8.75;;;5.65;;
9310;SDS011;4694;52.464;13.480;2023-09-12T13:50:23;9.40;;;6.53;;
9310;SDS011;4694;52.464;13.480;2023-09-12T13:52:51;12.18;;;5.53;;
9310;SDS011;4694;52.464;13.480;2023-09-12T13:55:19;14.75;;;6.38;;
9310;SDS011;4694;52.464;13.480;2023-09-12T13:57:46;12.95;;;7.10;;
9310;SDS011;4694;52.464;13.480;2023-09-12T14:00:13;10.35;;;6.05;;
9310;SDS011;4694;52.464;13.480;2023-09-12T14:02:40;11.93;;;5.50;;
9310;SDS011;4694;52.464;13.480;2023-09-12T14:05:07;14.70;;;6.45;;
9310;SDS011;4694;52.464;13.480;2023-09-12T14:07:34;10.65;;;6.15;;
9310;SDS011;4694;52.464;13.480;2023-09-12T14:10:03;15.00;;;6.97;;
9310;SDS011;4694;52.464;13.480;2023-09-12T14:12:30;9.38;;;6.20;;
9310;SDS011;4694;52.464;13.480;2023-09-12T14:14:56;8.90;;;5.90;;
9310;SDS011;4694;52.464;13.480;2023-09-12T14:17:23;15.38;;;7.30;;
9310;SDS011;4694;52.464;13.480;2023-09-12T14:19:49;10.68;;;6.70;;
9310;SDS011;4694;52.464;13.480;2023-09-12T14:22:16;17.05;;;6.32;;
9310;SDS011;4694;52.464;13.480;2023-09-12T14:24:43;11.65;;;7.05;;
9310;SDS011;4694;52.464;13.480;2023-09-12T14:27:11;13.70;;;6.75;;
9310;SDS011;4694;52.464;13.480;2023-09-12T14:29:37;10.55;;;6.38;;
9310;SDS011;4694;52.464;13.480;2023-09-12T14:32:04;7.43;;;5.70;;
9310;SDS011;4694;52.464;13.480;2023-09-12T14:34:31;13.82;;;6.38;;
9310;SDS011;4694;52.464;13.480;2023-09-12T14:36:58;7.68;;;6.00;;
9310;SDS011;4694;52.464;13.480;2023-09-12T14:39:25;11.90;;;6.05;;
9310;SDS011;4694;52.464;13.480;2023-09-12T14:41:51;11.20;;;6.75;;
9310;SDS011;4694;52.464;13.480;2023-09-12T14:44:20;13.98;;;6.38;;
9310;SDS011;4694;52.464;13.480;2023-09-12T14:46:47;13.95;;;6.70;;
9310;SDS011;4694;52.464;13.480;2023-09-12T14:49:14;13.93;;;6.85;;
9310;SDS011;4694;52.464;13.480;2023-09-12T14:51:41;11.45;;;6.10;;
9310;SDS011;4694;52.464;13.480;2023-09-12T14:54:08;16.40;;;7.50;;
9310;SDS011;4694;52.464;13.480;2023-09-12T14:56:35;11.27;;;6.60;;
9310;SDS011;4694;52.464;13.480;2023-09-12T14:59:03;11.30;;;6.68;;